sensor_id;sensor_type;location;lat;lon;timestamp;pressure;altitude;pressure_sealevel;temperature;humidity
6345;BME280;3205;42.666;23.264;2024-01-15T00:00:33;93809.97;;;-2.71;100.00
6345;BME280;3205;42.666;23.264;2024-01-15T00:02:59;93799.69;;;-2.81;100.00
6345;BME280;3205;42.666;23.264;2024-01-15T00:05:25;93805.63;;;-2.81;100.00
6345;BME280;3205;42.666;23.264;2024-01-15T00:07:52;93806.19;;;-2.84;100.00
6345;BME280;3205;42.666;23.264;2024-01-15T00:10:18;93799.72;;;-2.91;100.00
6345;BME280;3205;42.666;23.264;2024-01-15T00:12:45;93800.00;;;-2.93;100.00
6345;BME280;3205;42.666;23.264;2024-01-15T00:15:11;93795.09;;;-2.94;100.00
6345;BME280;3205;42.666;23.264;2024-01-15T00:17:38;93796.41;;;-2.96;100.00
6345;BME280;3205;42.666;23.264;2024-01-15T00:20:05;93805.38;;;-2.84;100.00
6345;BME280;3205;42.666;23.264;2024-01-15T00:22:32;93797.13;;;-2.91;100.00
6345;BME280;3205;42.666;23.264;2024-01-15T00:25:01;93797.94;;;-2.95;100.00
6345;BME280;3205;42.666;23.264;2024-01-15T00:27:27;93801.56;;;-2.96;100.00
6345;BME280;3205;42.666;23.264;2024-01-15T00:29:54;93802.31;;;-2.96;100.00
6345;BME280;3205;42.666;23.264;2024-01-15T00:32:20;93805.69;;;-2.91;100.00
6345;BME280;3205;42.666;23.264;2024-01-15T00:34:47;93814.75;;;-3.03;100.00
6345;BME280;3205;42.666;23.264;2024-01-15T00:37:13;93811.94;;;-3.11;100.00
6345;BME280;3205;42.666;23.264;2024-01-15T00:39:39;93806.25;;;-3.13;100.00
6345;BME280;3205;42.666;23.264;2024-01-15T00:42:06;93810.16;;;-3.16;100.00
6345;BME280;3205;42.666;23.264;2024-01-15T00:44:32;93814.31;;;-3.20;100.00
6345;BME280;3205;42.666;23.264;2024-01-15T00:46:59;93806.31;;;-3.23;100.00
6345;BME280;3205;42.666;23.264;2024-01-15T00:49:27;93807.59;;;-3.21;100.00
6345;BME280;3205;42.666;23.264;2024-01-15T00:51:53;93811.44;;;-3.18;100.00
6345;BME280;3205;42.666;23.264;2024-01-15T00:54:20;93816.38;;;-3.27;100.00
6345;BME280;3205;42.666;23.264;2024-01-15T00:56:46;93810.16;;;-3.31;100.00
6345;BME280;3205;42.666;23.264;2024-01-15T00:59:12;93805.53;;;-3.34;100.00
6345;BME280;3205;42.666;23.264;2024-01-15T01:01:40;93802.19;;;-3.39;100.00
6345;BME280;3205;42.666;23.264;2024-01-15T01:04:09;93799.34;;;-3.38;100.00
6345;BME280;3205;42.666;23.264;2024-01-15T01:06:35;93804.78;;;-3.44;100.00
6345;BME280;3205;42.666;23.264;2024-01-15T01:09:01;93795.75;;;-3.47;100.00
6345;BME280;3205;42.666;23.264;2024-01-15T01:11:28;93798.81;;;-3.45;100.00
6345;BME280;3205;42.666;23.264;2024-01-15T01:13:54;93795.75;;;-3.47;100.00
6345;BME280;3205;42.666;23.264;2024-01-15T01:16:22;93794.44;;;-3.49;100.00
6345;BME280;3205;42.666;23.264;2024-01-15T01:18:48;93803.22;;;-3.45;100.00
6345;BME280;3205;42.666;23.264;2024-01-15T01:21:15;93789.81;;;-3.52;100.00
6345;BME280;3205;42.666;23.264;2024-01-15T01:23:42;93790.31;;;-3.45;100.00
6345;BME280;3205;42.666;23.264;2024-01-15T01:26:08;93788.50;;;-3.45;100.00
6345;BME280;3205;42.666;23.264;2024-01-15T01:28:34;93786.19;;;-3.46;100.00
6345;BME280;3205;42.666;23.264;2024-01-15T01:31:01;93778.44;;;-3.51;100.00
6345;BME280;3205;42.666;23.264;2024-01-15T01:33:29;93768.41;;;-3.53;100.00
6345;BME280;3205;42.666;23.264;2024-01-15T01:35:55;93781.03;;;-3.51;100.00
6345;BME280;3205;42.666;23.264;2024-01-15T01:38:22;93773.56;;;-3.53;100.00
6345;BME280;3205;42.666;23.264;2024-01-15T01:40:48;93775.34;;;-3.53;100.00
6345;BME280;3205;42.666;23.264;2024-01-15T01:43:15;93768.41;;;-3.53;100.00
6345;BME280;3205;42.666;23.264;2024-01-15T01:45:41;93769.41;;;-3.54;100.00
6345;BME280;3205;42.666;23.264;2024-01-15T01:48:07;93769.13;;;-3.42;100.00
6345;BME280;3205;42.666;23.264;2024-01-15T01:50:37;93763.47;;;-3.44;100.00
6345;BME280;3205;42.666;23.264;2024-01-15T01:53:03;93770.97;;;-3.53;100.00
6345;BME280;3205;42.666;23.264;2024-01-15T01:55:31;93768.88;;;-3.51;100.00
6345;BME280;3205;42.666;23.264;2024-01-15T01:57:59;93762.16;;;-3.52;100.00
6345;BME280;3205;42.666;23.264;2024-01-15T02:00:26;93764.00;;;-3.52;100.00
6345;BME280;3205;42.666;23.264;2024-01-15T02:02:53;93759.84;;;-3.53;100.00
6345;BME280;3205;42.666;23.264;2024-01-15T02:05:19;93758.31;;;-3.54;100.00
6345;BME280;3205;42.666;23.264;2024-01-15T02:07:47;93754.97;;;-3.60;100.00
6345;BME280;3205;42.666;23.264;2024-01-15T02:10:13;93750.84;;;-3.61;100.00
6345;BME280;3205;42.666;23.264;2024-01-15T02:12:42;93750.06;;;-3.61;100.00
6345;BME280;3205;42.666;23.264;2024-01-15T02:15:08;93748.53;;;-3.67;100.00
6345;BME280;3205;42.666;23.264;2024-01-15T02:17:35;93745.44;;;-3.64;100.00
6345;BME280;3205;42.666;23.264;2024-01-15T02:20:01;93728.91;;;-3.63;100.00
6345;BME280;3205;42.666;23.264;2024-01-15T02:22:27;93718.56;;;-3.58;100.00
6345;BME280;3205;42.666;23.264;2024-01-15T02:24:54;93684.97;;;-3.53;100.00
6345;BME280;3205;42.666;23.264;2024-01-15T02:27:21;93686.19;;;-3.36;100.00
6345;BME280;3205;42.666;23.264;2024-01-15T02:29:48;93689.03;;;-3.32;100.00
6345;BME280;3205;42.666;23.264;2024-01-15T02:32:14;93681.31;;;-3.42;100.00
6345;BME280;3205;42.666;23.264;2024-01-15T02:34:41;93691.66;;;-3.47;100.00
6345;BME280;3205;42.666;23.264;2024-01-15T02:37:07;93689.38;;;-3.54;100.00
6345;BME280;3205;42.666;23.264;2024-01-15T02:39:33;93697.91;;;-3.58;100.00
6345;BME280;3205;42.666;23.264;2024-01-15T02:42:00;93701.75;;;-3.56;100.00
6345;BME280;3205;42.666;23.264;2024-01-15T02:44:26;93693.25;;;-3.56;100.00
6345;BME280;3205;42.666;23.264;2024-01-15T02:46:53;93699.19;;;-3.56;100.00
6345;BME280;3205;42.666;23.264;2024-01-15T02:49:19;93692.13;;;-3.35;100.00
6345;BME280;3205;42.666;23.264;2024-01-15T02:51:46;93697.81;;;-3.33;100.00
6345;BME280;3205;42.666;23.264;2024-01-15T02:54:13;93695.75;;;-3.41;100.00
6345;BME280;3205;42.666;23.264;2024-01-15T02:56:39;93691.91;;;-3.44;100.00
6345;BME280;3205;42.666;23.264;2024-01-15T02:59:06;93686.19;;;-3.36;100.00
6345;BME280;3205;42.666;23.264;2024-01-15T03:01:32;93685.69;;;-3.38;100.00
6345;BME280;3205;42.666;23.264;2024-01-15T03:03:59;93689.50;;;-3.20;100.00
6345;BME280;3205;42.666;23.264;2024-01-15T03:06:25;93693.34;;;-3.13;100.00
6345;BME280;3205;42.666;23.264;2024-01-15T03:08:51;93687.94;;;-3.16;100.00
6345;BME280;3205;42.666;23.264;2024-01-15T03:11:18;93681.75;;;-3.20;100.00
6345;BME280;3205;42.666;23.264;2024-01-15T03:13:44;93682.25;;;-3.18;100.00
6345;BME280;3205;42.666;23.264;2024-01-15T03:16:11;93675.78;;;-3.16;100.00
6345;BME280;3205;42.666;23.264;2024-01-15T03:18:37;93678.09;;;-3.14;100.00
6345;BME280;3205;42.666;23.264;2024-01-15T03:21:05;93662.03;;;-3.06;100.00
6345;BME280;3205;42.666;23.264;2024-01-15T03:23:32;93664.34;;;-3.00;100.00
6345;BME280;3205;42.666;23.264;2024-01-15T03:25:58;93671.78;;;-2.89;100.00
6345;BME280;3205;42.666;23.264;2024-01-15T03:28:24;93660.84;;;-2.81;100.00
6345;BME280;3205;42.666;23.264;2024-01-15T03:30:50;93658.25;;;-2.76;100.00
6345;BME280;3205;42.666;23.264;2024-01-15T03:33:17;93664.13;;;-2.70;100.00
6345;BME280;3205;42.666;23.264;2024-01-15T03:35:44;93670.34;;;-2.66;100.00
6345;BME280;3205;42.666;23.264;2024-01-15T03:38:10;93658.09;;;-2.56;100.00
6345;BME280;3205;42.666;23.264;2024-01-15T03:40:36;93668.19;;;-2.54;100.00
6345;BME280;3205;42.666;23.264;2024-01-15T03:43:03;93673.34;;;-2.54;100.00
6345;BME280;3205;42.666;23.264;2024-01-15T03:45:29;93664.84;;;-2.60;100.00
6345;BME280;3205;42.666;23.264;2024-01-15T03:47:56;93657.88;;;-2.59;100.00
6345;BME280;3205;42.666;23.264;2024-01-15T03:50:23;93664.03;;;-2.55;100.00
6345;BME280;3205;42.666;23.264;2024-01-15T03:52:50;93655.84;;;-2.34;100.00
6345;BME280;3205;42.666;23.264;2024-01-15T03:55:16;93670.72;;;-2.49;100.00
6345;BME280;3205;42.666;23.264;2024-01-15T03:57:42;93667.66;;;-2.51;100.00
6345;BME280;3205;42.666;23.264;2024-01-15T04:00:10;93667.97;;;-2.63;100.00
6345;BME280;3205;42.666;23.264;2024-01-15T04:02:38;93651.72;;;-2.68;100.00
6345;BME280;3205;42.666;23.264;2024-01-15T04:05:05;93637.94;;;-2.59;100.00
6345;BME280;3205;42.666;23.264;2024-01-15T04:07:32;93640.06;;;-2.66;100.00
6345;BME280;3205;42.666;23.264;2024-01-15T04:09:58;93641.66;;;-2.70;100.00
6345;BME280;3205;42.666;23.264;2024-01-15T04:12:25;93647.38;;;-2.78;100.00
6345;BME280;3205;42.666;23.264;2024-01-15T04:14:51;93647.44;;;-2.83;100.00
6345;BME280;3205;42.666;23.264;2024-01-15T04:17:17;93646.16;;;-2.90;100.00
6345;BME280;3205;42.666;23.264;2024-01-15T04:19:44;93638.22;;;-2.98;100.00
6345;BME280;3205;42.666;23.264;2024-01-15T04:22:10;93652.22;;;-3.04;100.00
6345;BME280;3205;42.666;23.264;2024-01-15T04:24:37;93646.53;;;-3.06;100.00
6345;BME280;3205;42.666;23.264;2024-01-15T04:27:04;93651.97;;;-3.08;100.00
6345;BME280;3205;42.666;23.264;2024-01-15T04:29:30;93652.66;;;-2.93;100.00
6345;BME280;3205;42.666;23.264;2024-01-15T04:31:57;93648.34;;;-3.12;100.00
6345;BME280;3205;42.666;23.264;2024-01-15T04:34:23;93655.66;;;-3.19;100.00
6345;BME280;3205;42.666;23.264;2024-01-15T04:36:49;93645.09;;;-3.27;100.00
6345;BME280;3205;42.666;23.264;2024-01-15T04:39:16;93648.69;;;-3.23;100.00
6345;BME280;3205;42.666;23.264;2024-01-15T04:41:43;93638.94;;;-3.36;100.00
6345;BME280;3205;42.666;23.264;2024-01-15T04:44:09;93641.03;;;-3.43;100.00
6345;BME280;3205;42.666;23.264;2024-01-15T04:46:35;93645.69;;;-3.45;100.00
6345;BME280;3205;42.666;23.264;2024-01-15T04:49:02;93641.03;;;-3.48;100.00
6345;BME280;3205;42.666;23.264;2024-01-15T04:51:28;93639.00;;;-3.51;100.00
6345;BME280;3205;42.666;23.264;2024-01-15T04:53:54;93626.81;;;-3.46;100.00
6345;BME280;3205;42.666;23.264;2024-01-15T04:56:20;93618.78;;;-3.39;100.00
6345;BME280;3205;42.666;23.264;2024-01-15T04:58:47;93619.00;;;-3.31;100.00
6345;BME280;3205;42.666;23.264;2024-01-15T05:01:15;93606.88;;;-3.30;100.00
6345;BME280;3205;42.666;23.264;2024-01-15T05:03:42;93610.78;;;-3.38;100.00
6345;BME280;3205;42.666;23.264;2024-01-15T05:06:08;93606.41;;;-3.42;100.00
6345;BME280;3205;42.666;23.264;2024-01-15T05:08:34;93596.31;;;-3.39;100.00
6345;BME280;3205;42.666;23.264;2024-01-15T05:11:01;93603.69;;;-3.17;100.00
6345;BME280;3205;42.666;23.264;2024-01-15T05:13:27;93605.72;;;-3.14;100.00
6345;BME280;3205;42.666;23.264;2024-01-15T05:15:54;93602.91;;;-3.18;100.00
6345;BME280;3205;42.666;23.264;2024-01-15T05:18:21;93619.47;;;-3.19;100.00
6345;BME280;3205;42.666;23.264;2024-01-15T05:20:47;93618.50;;;-3.28;100.00
6345;BME280;3205;42.666;23.264;2024-01-15T05:23:13;93608.44;;;-3.34;100.00
6345;BME280;3205;42.666;23.264;2024-01-15T05:25:40;93613.59;;;-3.34;100.00
6345;BME280;3205;42.666;23.264;2024-01-15T05:28:06;93626.03;;;-3.41;100.00
6345;BME280;3205;42.666;23.264;2024-01-15T05:30:33;93613.66;;;-3.49;100.00
6345;BME280;3205;42.666;23.264;2024-01-15T05:33:00;93616.50;;;-3.46;100.00
6345;BME280;3205;42.666;23.264;2024-01-15T05:35:28;93607.13;;;-3.32;100.00
6345;BME280;3205;42.666;23.264;2024-01-15T05:37:54;93608.16;;;-3.28;100.00
6345;BME280;3205;42.666;23.264;2024-01-15T05:40:20;93607.91;;;-3.31;100.00
6345;BME280;3205;42.666;23.264;2024-01-15T05:42:47;93598.38;;;-3.36;100.00
6345;BME280;3205;42.666;23.264;2024-01-15T05:45:13;93596.56;;;-3.35;100.00
6345;BME280;3205;42.666;23.264;2024-01-15T05:47:39;93589.63;;;-3.40;100.00
6345;BME280;3205;42.666;23.264;2024-01-15T05:50:08;93577.72;;;-3.36;100.00
6345;BME280;3205;42.666;23.264;2024-01-15T05:52:34;93587.28;;;-3.36;100.00
6345;BME280;3205;42.666;23.264;2024-01-15T05:55:00;93578.00;;;-3.42;100.00
6345;BME280;3205;42.666;23.264;2024-01-15T05:57:26;93588.81;;;-3.35;100.00
6345;BME280;3205;42.666;23.264;2024-01-15T05:59:53;93591.91;;;-3.33;100.00
6345;BME280;3205;42.666;23.264;2024-01-15T06:02:20;93587.00;;;-3.35;100.00
6345;BME280;3205;42.666;23.264;2024-01-15T06:04:46;93594.47;;;-3.33;100.00
6345;BME280;3205;42.666;23.264;2024-01-15T06:07:13;93585.09;;;-3.19;100.00
6345;BME280;3205;42.666;23.264;2024-01-15T06:09:39;93571.06;;;-3.08;100.00
6345;BME280;3205;42.666;23.264;2024-01-15T06:12:07;93589.34;;;-2.95;100.00
6345;BME280;3205;42.666;23.264;2024-01-15T06:14:34;93591.88;;;-2.85;100.00
6345;BME280;3205;42.666;23.264;2024-01-15T06:17:02;93582.00;;;-2.78;100.00
6345;BME280;3205;42.666;23.264;2024-01-15T06:19:28;93595.44;;;-2.81;100.00
6345;BME280;3205;42.666;23.264;2024-01-15T06:21:55;93585.47;;;-2.64;100.00
6345;BME280;3205;42.666;23.264;2024-01-15T06:24:22;93584.03;;;-2.47;100.00
6345;BME280;3205;42.666;23.264;2024-01-15T06:26:48;93575.25;;;-2.46;100.00
6345;BME280;3205;42.666;23.264;2024-01-15T06:29:14;93576.09;;;-2.27;100.00
6345;BME280;3205;42.666;23.264;2024-01-15T06:31:40;93588.41;;;-2.14;100.00
6345;BME280;3205;42.666;23.264;2024-01-15T06:34:07;93596.41;;;-1.87;100.00
6345;BME280;3205;42.666;23.264;2024-01-15T06:36:33;93589.63;;;-1.83;100.00
6345;BME280;3205;42.666;23.264;2024-01-15T06:38:59;93591.25;;;-1.64;100.00
6345;BME280;3205;42.666;23.264;2024-01-15T06:41:26;93592.25;;;-1.42;100.00
6345;BME280;3205;42.666;23.264;2024-01-15T06:43:52;93595.38;;;-1.03;100.00
6345;BME280;3205;42.666;23.264;2024-01-15T06:46:20;93599.75;;;-0.67;100.00
6345;BME280;3205;42.666;23.264;2024-01-15T06:48:46;93598.69;;;-0.47;100.00
6345;BME280;3205;42.666;23.264;2024-01-15T06:51:13;93605.66;;;-0.29;100.00
6345;BME280;3205;42.666;23.264;2024-01-15T06:53:39;93596.38;;;-0.17;100.00
6345;BME280;3205;42.666;23.264;2024-01-15T06:56:05;93599.56;;;-0.06;100.00
6345;BME280;3205;42.666;23.264;2024-01-15T06:58:32;93604.31;;;0.05;100.00
6345;BME280;3205;42.666;23.264;2024-01-15T07:00:59;93605.47;;;0.12;100.00
6345;BME280;3205;42.666;23.264;2024-01-15T07:03:25;93604.31;;;0.18;100.00
6345;BME280;3205;42.666;23.264;2024-01-15T07:05:54;93612.50;;;0.12;100.00
6345;BME280;3205;42.666;23.264;2024-01-15T07:08:20;93610.44;;;-0.04;100.00
6345;BME280;3205;42.666;23.264;2024-01-15T07:10:47;93626.69;;;-0.12;100.00
6345;BME280;3205;42.666;23.264;2024-01-15T07:13:13;93612.84;;;-0.08;100.00
6345;BME280;3205;42.666;23.264;2024-01-15T07:15:40;93620.53;;;-0.03;100.00
6345;BME280;3205;42.666;23.264;2024-01-15T07:18:06;93613.25;;;-0.01;100.00
6345;BME280;3205;42.666;23.264;2024-01-15T07:20:32;93596.88;;;-0.02;100.00
6345;BME280;3205;42.666;23.264;2024-01-15T07:22:59;93602.97;;;0.07;100.00
6345;BME280;3205;42.666;23.264;2024-01-15T07:25:25;93592.97;;;0.14;100.00
6345;BME280;3205;42.666;23.264;2024-01-15T07:27:52;93600.16;;;0.17;100.00
6345;BME280;3205;42.666;23.264;2024-01-15T07:30:19;93596.63;;;0.13;100.00
6345;BME280;3205;42.666;23.264;2024-01-15T07:32:48;93594.81;;;0.27;100.00
6345;BME280;3205;42.666;23.264;2024-01-15T07:35:14;93581.91;;;0.36;100.00
6345;BME280;3205;42.666;23.264;2024-01-15T07:37:41;93586.63;;;0.34;100.00
6345;BME280;3205;42.666;23.264;2024-01-15T07:40:08;93600.66;;;0.46;100.00
6345;BME280;3205;42.666;23.264;2024-01-15T07:42:34;93596.44;;;0.50;100.00
6345;BME280;3205;42.666;23.264;2024-01-15T07:45:00;93599.53;;;0.66;100.00
6345;BME280;3205;42.666;23.264;2024-01-15T07:47:27;93605.66;;;0.70;100.00
6345;BME280;3205;42.666;23.264;2024-01-15T07:49:54;93609.41;;;0.90;100.00
6345;BME280;3205;42.666;23.264;2024-01-15T07:52:21;93603.91;;;0.92;100.00
6345;BME280;3205;42.666;23.264;2024-01-15T07:54:47;93605.81;;;1.13;100.00
6345;BME280;3205;42.666;23.264;2024-01-15T07:57:13;93585.63;;;1.19;100.00
6345;BME280;3205;42.666;23.264;2024-01-15T07:59:40;93577.56;;;1.07;100.00
6345;BME280;3205;42.666;23.264;2024-01-15T08:02:06;93583.50;;;1.21;100.00
6345;BME280;3205;42.666;23.264;2024-01-15T08:04:32;93572.75;;;1.36;100.00
6345;BME280;3205;42.666;23.264;2024-01-15T08:06:59;93580.06;;;1.47;100.00
6345;BME280;3205;42.666;23.264;2024-01-15T08:09:26;93602.72;;;1.68;100.00
6345;BME280;3205;42.666;23.264;2024-01-15T08:11:52;93600.34;;;1.80;100.00
6345;BME280;3205;42.666;23.264;2024-01-15T08:14:18;93606.25;;;1.94;100.00
6345;BME280;3205;42.666;23.264;2024-01-15T08:16:44;93601.16;;;2.11;100.00
6345;BME280;3205;42.666;23.264;2024-01-15T08:19:11;93607.59;;;1.92;100.00
6345;BME280;3205;42.666;23.264;2024-01-15T08:21:37;93611.03;;;2.01;100.00
6345;BME280;3205;42.666;23.264;2024-01-15T08:24:05;93602.72;;;2.20;100.00
6345;BME280;3205;42.666;23.264;2024-01-15T08:26:32;93616.44;;;2.04;100.00
6345;BME280;3205;42.666;23.264;2024-01-15T08:28:58;93616.13;;;2.06;100.00
6345;BME280;3205;42.666;23.264;2024-01-15T08:31:25;93628.13;;;2.15;100.00
6345;BME280;3205;42.666;23.264;2024-01-15T08:33:51;93608.66;;;2.13;100.00
6345;BME280;3205;42.666;23.264;2024-01-15T08:36:18;93614.03;;;2.16;100.00
6345;BME280;3205;42.666;23.264;2024-01-15T08:38:44;93594.06;;;2.42;100.00
6345;BME280;3205;42.666;23.264;2024-01-15T08:41:11;93590.91;;;2.62;100.00
6345;BME280;3205;42.666;23.264;2024-01-15T08:43:38;93598.47;;;2.72;100.00
6345;BME280;3205;42.666;23.264;2024-01-15T08:46:04;93589.03;;;2.92;100.00
6345;BME280;3205;42.666;23.264;2024-01-15T08:48:30;93591.19;;;3.07;100.00
6345;BME280;3205;42.666;23.264;2024-01-15T08:50:56;93588.59;;;3.16;100.00
6345;BME280;3205;42.666;23.264;2024-01-15T08:53:23;93576.59;;;3.23;100.00
6345;BME280;3205;42.666;23.264;2024-01-15T08:55:49;93588.00;;;3.27;100.00
6345;BME280;3205;42.666;23.264;2024-01-15T08:58:17;93573.41;;;3.26;100.00
6345;BME280;3205;42.666;23.264;2024-01-15T09:00:43;93563.88;;;3.30;100.00
6345;BME280;3205;42.666;23.264;2024-01-15T09:03:10;93558.34;;;3.40;100.00
6345;BME280;3205;42.666;23.264;2024-01-15T09:05:37;93556.38;;;3.46;100.00
6345;BME280;3205;42.666;23.264;2024-01-15T09:08:04;93541.91;;;3.57;100.00
6345;BME280;3205;42.666;23.264;2024-01-15T09:10:30;93523.81;;;4.06;100.00
6345;BME280;3205;42.666;23.264;2024-01-15T09:12:56;93515.59;;;4.82;100.00
6345;BME280;3205;42.666;23.264;2024-01-15T09:15:23;93523.78;;;5.82;100.00
6345;BME280;3205;42.666;23.264;2024-01-15T09:17:50;93511.31;;;7.07;97.80
6345;BME280;3205;42.666;23.264;2024-01-15T09:20:16;93505.66;;;8.45;80.57
6345;BME280;3205;42.666;23.264;2024-01-15T09:22:43;93502.81;;;10.28;64.84
6345;BME280;3205;42.666;23.264;2024-01-15T09:25:11;93508.16;;;11.24;55.99
6345;BME280;3205;42.666;23.264;2024-01-15T09:27:37;93503.53;;;11.73;52.76
6345;BME280;3205;42.666;23.264;2024-01-15T09:30:04;93503.72;;;12.23;50.27
6345;BME280;3205;42.666;23.264;2024-01-15T09:32:32;93494.84;;;12.45;48.22
6345;BME280;3205;42.666;23.264;2024-01-15T09:34:58;93485.06;;;11.80;48.49
6345;BME280;3205;42.666;23.264;2024-01-15T09:37:25;93476.47;;;10.32;51.01
6345;BME280;3205;42.666;23.264;2024-01-15T09:39:51;93482.56;;;8.85;55.13
6345;BME280;3205;42.666;23.264;2024-01-15T09:42:18;93477.78;;;7.98;58.41
6345;BME280;3205;42.666;23.264;2024-01-15T09:44:44;93471.72;;;7.27;62.97
6345;BME280;3205;42.666;23.264;2024-01-15T09:47:12;93461.41;;;6.95;68.77
6345;BME280;3205;42.666;23.264;2024-01-15T09:49:39;93450.69;;;6.88;73.51
6345;BME280;3205;42.666;23.264;2024-01-15T09:52:07;93435.16;;;7.22;71.48
6345;BME280;3205;42.666;23.264;2024-01-15T09:54:33;93436.59;;;7.20;72.63
6345;BME280;3205;42.666;23.264;2024-01-15T09:57:00;93432.94;;;6.97;73.20
6345;BME280;3205;42.666;23.264;2024-01-15T09:59:27;93424.53;;;6.91;75.34
6345;BME280;3205;42.666;23.264;2024-01-15T10:01:55;93430.03;;;6.74;77.76
6345;BME280;3205;42.666;23.264;2024-01-15T10:04:24;93440.00;;;6.57;80.75
6345;BME280;3205;42.666;23.264;2024-01-15T10:06:51;93439.59;;;6.31;80.77
6345;BME280;3205;42.666;23.264;2024-01-15T10:09:18;93422.22;;;6.15;77.71
6345;BME280;3205;42.666;23.264;2024-01-15T10:11:45;93433.38;;;6.24;76.20
6345;BME280;3205;42.666;23.264;2024-01-15T10:14:12;93418.91;;;6.06;79.44
6345;BME280;3205;42.666;23.264;2024-01-15T10:16:39;93407.44;;;6.10;79.73
6345;BME280;3205;42.666;23.264;2024-01-15T10:19:05;93406.22;;;5.84;83.83
6345;BME280;3205;42.666;23.264;2024-01-15T10:21:32;93403.81;;;5.91;83.31
6345;BME280;3205;42.666;23.264;2024-01-15T10:24:01;93400.34;;;5.87;86.10
6345;BME280;3205;42.666;23.264;2024-01-15T10:26:28;93384.50;;;5.84;87.73
6345;BME280;3205;42.666;23.264;2024-01-15T10:28:55;93372.03;;;6.04;85.87
6345;BME280;3205;42.666;23.264;2024-01-15T10:31:21;93388.34;;;6.10;84.71
6345;BME280;3205;42.666;23.264;2024-01-15T10:33:48;93383.38;;;6.08;82.51
6345;BME280;3205;42.666;23.264;2024-01-15T10:36:15;93388.84;;;6.15;81.71
6345;BME280;3205;42.666;23.264;2024-01-15T10:38:43;93384.16;;;5.97;81.86
6345;BME280;3205;42.666;23.264;2024-01-15T10:41:10;93390.28;;;6.01;82.23
6345;BME280;3205;42.666;23.264;2024-01-15T10:43:36;93381.88;;;5.84;85.64
6345;BME280;3205;42.666;23.264;2024-01-15T10:46:03;93384.16;;;5.97;84.07
6345;BME280;3205;42.666;23.264;2024-01-15T10:48:30;93376.41;;;6.00;83.31
6345;BME280;3205;42.666;23.264;2024-01-15T10:50:57;93363.06;;;5.82;83.07
6345;BME280;3205;42.666;23.264;2024-01-15T10:53:24;93359.63;;;5.57;85.16
6345;BME280;3205;42.666;23.264;2024-01-15T10:55:51;93360.78;;;5.80;87.63
6345;BME280;3205;42.666;23.264;2024-01-15T10:58:18;93355.00;;;5.98;84.05
6345;BME280;3205;42.666;23.264;2024-01-15T11:00:45;93365.13;;;6.12;81.89
6345;BME280;3205;42.666;23.264;2024-01-15T11:03:11;93363.72;;;6.14;83.41
6345;BME280;3205;42.666;23.264;2024-01-15T11:05:38;93338.69;;;6.05;82.04
6345;BME280;3205;42.666;23.264;2024-01-15T11:08:06;93340.34;;;6.09;84.45
6345;BME280;3205;42.666;23.264;2024-01-15T11:10:39;93339.31;;;6.50;81.47
6345;BME280;3205;42.666;23.264;2024-01-15T11:13:08;93345.06;;;6.55;81.22
6345;BME280;3205;42.666;23.264;2024-01-15T11:15:58;93344.56;;;6.50;78.79
6345;BME280;3205;42.666;23.264;2024-01-15T11:18:27;93327.47;;;6.56;79.11
6345;BME280;3205;42.666;23.264;2024-01-15T11:21:19;93329.34;;;6.82;79.72
6345;BME280;3205;42.666;23.264;2024-01-15T11:23:47;93324.41;;;7.08;77.71
6345;BME280;3205;42.666;23.264;2024-01-15T11:26:31;93327.31;;;7.19;74.89
6345;BME280;3205;42.666;23.264;2024-01-15T11:28:59;93334.72;;;7.29;71.91
6345;BME280;3205;42.666;23.264;2024-01-15T11:31:59;93331.19;;;7.52;70.19
6345;BME280;3205;42.666;23.264;2024-01-15T11:34:51;93319.16;;;7.51;71.05
6345;BME280;3205;42.666;23.264;2024-01-15T11:37:18;93327.22;;;7.42;70.28
6345;BME280;3205;42.666;23.264;2024-01-15T11:39:45;93318.22;;;7.59;70.00
6345;BME280;3205;42.666;23.264;2024-01-15T11:42:13;93315.69;;;7.62;71.00
6345;BME280;3205;42.666;23.264;2024-01-15T11:44:41;93322.53;;;7.67;70.71
6345;BME280;3205;42.666;23.264;2024-01-15T11:47:09;93316.94;;;7.68;73.96
6345;BME280;3205;42.666;23.264;2024-01-15T11:49:58;93312.94;;;7.90;71.89
6345;BME280;3205;42.666;23.264;2024-01-15T11:52:26;93301.34;;;7.75;75.37
6345;BME280;3205;42.666;23.264;2024-01-15T11:55:01;93304.66;;;7.57;72.08
6345;BME280;3205;42.666;23.264;2024-01-15T11:57:37;93290.72;;;7.56;72.37
6345;BME280;3205;42.666;23.264;2024-01-15T12:00:07;93292.78;;;7.32;73.90
6345;BME280;3205;42.666;23.264;2024-01-15T12:02:35;93297.75;;;7.22;78.77
6345;BME280;3205;42.666;23.264;2024-01-15T12:05:01;93296.28;;;7.09;80.33
6345;BME280;3205;42.666;23.264;2024-01-15T12:07:28;93290.44;;;7.15;83.49
6345;BME280;3205;42.666;23.264;2024-01-15T12:09:54;93268.78;;;6.91;81.44
6345;BME280;3205;42.666;23.264;2024-01-15T12:12:26;93277.91;;;6.81;84.73
6345;BME280;3205;42.666;23.264;2024-01-15T12:14:53;93280.13;;;6.79;88.18
6345;BME280;3205;42.666;23.264;2024-01-15T12:17:19;93262.50;;;6.80;88.95
6345;BME280;3205;42.666;23.264;2024-01-15T12:19:46;93272.13;;;6.76;88.63
6345;BME280;3205;42.666;23.264;2024-01-15T12:22:13;93280.16;;;6.67;89.76
6345;BME280;3205;42.666;23.264;2024-01-15T12:24:40;93276.19;;;6.73;94.63
6345;BME280;3205;42.666;23.264;2024-01-15T12:27:08;93269.75;;;6.71;93.82
6345;BME280;3205;42.666;23.264;2024-01-15T12:29:34;93271.94;;;6.96;88.06
6345;BME280;3205;42.666;23.264;2024-01-15T12:32:00;93275.81;;;6.87;87.38
6345;BME280;3205;42.666;23.264;2024-01-15T12:34:29;93261.06;;;6.82;92.11
6345;BME280;3205;42.666;23.264;2024-01-15T12:36:57;93252.41;;;6.82;90.50
6345;BME280;3205;42.666;23.264;2024-01-15T12:39:24;93248.31;;;6.69;88.75
6345;BME280;3205;42.666;23.264;2024-01-15T12:41:51;93254.84;;;6.75;87.49
6345;BME280;3205;42.666;23.264;2024-01-15T12:44:17;93243.84;;;6.69;90.38
6345;BME280;3205;42.666;23.264;2024-01-15T12:46:43;93243.06;;;6.96;83.76
6345;BME280;3205;42.666;23.264;2024-01-15T12:49:10;93238.25;;;6.71;89.16
6345;BME280;3205;42.666;23.264;2024-01-15T12:51:36;93245.69;;;6.69;92.20
6345;BME280;3205;42.666;23.264;2024-01-15T12:54:03;93240.13;;;6.70;90.07
6345;BME280;3205;42.666;23.264;2024-01-15T12:56:29;93245.28;;;6.67;88.03
6345;BME280;3205;42.666;23.264;2024-01-15T12:58:56;93243.03;;;6.54;90.58
6345;BME280;3205;42.666;23.264;2024-01-15T13:01:22;93229.25;;;6.57;93.85
6345;BME280;3205;42.666;23.264;2024-01-15T13:03:48;93220.41;;;6.22;98.61
6345;BME280;3205;42.666;23.264;2024-01-15T13:06:15;93236.94;;;6.10;100.00